Airfield :
LOGIN :

Register | Disclaimer

   EN    FR    IT 

 










Legend :    VFR   Marginal VFR   IFR   Intensive IFR   Very Intensive IFR
Visi :
Ceiling :
>= 8 km
>= 3000ft
5 to 8 km
1000 to 3000 ft
1500m to 5 km
500 to 1000 ft
800 to 1500m
200 to 500 ft
< 800m
< 200 ft
Symbols :   Thunderstorms  Fog  Heavy snow  Heavy precipitations  Wind > 20 kt
SIGMETs :     Misc.  Thunderstorms  Icing  Turbulence  Mountain Waves  Volcanic Ashes







- Airport Elevation : 656 ft
- IATA code : CMN


GMMN - Casablanca Mohammed V

CURRENT METAR :
  • 241330Z 01008KT 310V060 CAVOK 32/14 Q1019 NOSIG

EXPIRED METARs :
  • 241300Z 36006KT 310V060 CAVOK 31/16 Q1019 NOSIG
  • 241230Z 01005KT 320V060 CAVOK 30/16 Q1020 NOSIG
  • 241200Z 02003KT 300V070 CAVOK 28/20 Q1020 NOSIG
  • 241130Z 03006KT 340V080 CAVOK 26/20 Q1020 NOSIG
  • 241100Z 02004KT 340V090 9000 NSC 24/21 Q1020 NOSIG

TAF TAF GMMN
Valid from the 24 at 12:00 until the 25 at 18:00 UTC


241100Z 2412/2518 02012KT CAVOK
BECMG 2420/2424 04004KT 6000 SCT008
TEMPO 2502/2508 3000 BR BKN006
PROB30
TEMPO 2504/2507 0600 FG
BECMG 2509/2512 34010KT 8000 NSC
No reported NOTAMs for that airfield.



MET'MAP, your aeronautical weather chart ! - Copyright ORBIFLY December 2007 - Disclaimer

ORBIFLY MET'MAP TEAM :

Programming & Development : Alexandra Zaïnal
Concept & Development : Baudouin d'Aumeries
Co-Development & Prog : Marc-Olivier Méhu
Technical & hardware support : Manuel Goepfert

Contact : metmap@orbifly.com




SOURCES & CREDITS :

   NOAA